createdAt,value
2023-05-16T00:01:30.851Z,12.30
2023-05-16T00:03:58.910Z,16.45
2023-05-16T00:06:26.945Z,13.23
2023-05-16T00:08:54.825Z,15.07
2023-05-16T00:11:23.282Z,15.40
2023-05-16T00:13:51.664Z,13.10
2023-05-16T00:16:21.872Z,12.95
2023-05-16T00:18:49.972Z,11.13
2023-05-16T00:21:17.947Z,10.45
2023-05-16T00:23:45.870Z,15.82
2023-05-16T00:26:13.888Z,14.07
2023-05-16T00:28:44.404Z,12.02
2023-05-16T00:31:12.325Z,19.05
2023-05-16T00:33:41.552Z,17.58
2023-05-16T00:36:09.676Z,12.98
2023-05-16T00:38:37.681Z,14.05
2023-05-16T00:41:05.547Z,11.85
2023-05-16T00:43:33.408Z,17.27
2023-05-16T00:46:01.998Z,20.23
2023-05-16T00:48:29.904Z,15.13
2023-05-16T00:50:59.208Z,13.52
2023-05-16T00:53:27.161Z,16.63
2023-05-16T00:55:55.459Z,11.85
2023-05-16T00:58:24.131Z,14.73
2023-05-16T01:00:52.169Z,12.35
2023-05-16T01:03:20.322Z,17.88
2023-05-16T01:05:49.957Z,20.27
2023-05-16T01:08:19.332Z,8.10
2023-05-16T01:11:06.035Z,11.27
2023-05-16T01:13:40.518Z,11.00
2023-05-16T01:16:12.008Z,9.80
2023-05-16T01:18:44.373Z,16.23
2023-05-16T01:21:17.696Z,15.70
2023-05-16T01:23:53.873Z,15.65
2023-05-16T01:26:24.963Z,16.08
2023-05-16T01:28:53.626Z,16.15
2023-05-16T01:31:22.034Z,9.93
2023-05-16T01:33:50.694Z,13.40
2023-05-16T01:36:25.733Z,12.77
2023-05-16T01:39:07.733Z,14.73
2023-05-16T01:41:55.328Z,12.43
2023-05-16T01:44:26.543Z,11.98
2023-05-16T01:46:59.790Z,16.05
2023-05-16T01:49:32.847Z,17.17
2023-05-16T01:52:03.534Z,12.70
2023-05-16T01:54:33.505Z,19.20
2023-05-16T01:57:05.606Z,12.55
2023-05-16T01:59:33.824Z,10.73
2023-05-16T02:02:01.775Z,14.90
2023-05-16T02:04:29.844Z,14.85
2023-05-16T02:06:58.088Z,15.02
2023-05-16T02:09:26.404Z,16.10
2023-05-16T02:11:54.398Z,21.23
2023-05-16T02:14:25.936Z,18.20
2023-05-16T02:16:53.896Z,12.57
2023-05-16T02:19:21.824Z,17.77
2023-05-16T02:21:49.805Z,9.77
2023-05-16T02:24:17.838Z,17.38
2023-05-16T02:26:45.749Z,12.50
2023-05-16T02:29:13.620Z,19.75
2023-05-16T02:31:43.370Z,18.65
2023-05-16T02:34:11.811Z,10.25
2023-05-16T02:36:39.691Z,13.32
2023-05-16T02:39:09.808Z,16.17
2023-05-16T02:41:38.459Z,13.48
2023-05-16T02:44:06.585Z,19.80
2023-05-16T02:46:35.805Z,12.60
2023-05-16T02:49:05.116Z,13.82
2023-05-16T02:51:33.210Z,10.63
2023-05-16T02:54:01.494Z,17.85
2023-05-16T02:56:29.376Z,13.15
2023-05-16T02:58:57.310Z,12.52
2023-05-16T03:01:25.274Z,13.70
2023-05-16T03:03:53.289Z,16.55
2023-05-16T03:06:22.811Z,17.35
2023-05-16T03:08:50.751Z,15.35
2023-05-16T03:11:20.829Z,17.20
2023-05-16T03:13:48.833Z,13.00
2023-05-16T03:16:17.007Z,22.00
2023-05-16T03:18:45.272Z,12.35
2023-05-16T03:21:13.419Z,13.63
2023-05-16T03:23:42.702Z,18.05
2023-05-16T03:26:10.608Z,12.75
2023-05-16T03:28:38.552Z,13.57
2023-05-16T03:31:06.733Z,14.55
2023-05-16T03:33:36.858Z,10.50
2023-05-16T03:36:05.263Z,8.27
2023-05-16T03:38:33.418Z,11.18
2023-05-16T03:41:05.249Z,16.90
2023-05-16T03:43:33.094Z,19.67
2023-05-16T03:46:02.718Z,16.60
2023-05-16T03:48:30.537Z,13.45
2023-05-16T03:50:58.399Z,14.15
2023-05-16T03:53:26.307Z,16.50
2023-05-16T03:55:54.182Z,16.02
2023-05-16T03:58:23.492Z,17.77
2023-05-16T04:00:51.391Z,13.45
2023-05-16T04:03:19.398Z,15.18
2023-05-16T04:05:47.392Z,15.43
2023-05-16T04:08:15.584Z,13.35
2023-05-16T04:10:43.539Z,15.27
2023-05-16T04:13:11.417Z,11.20
2023-05-16T04:15:40.685Z,14.90
2023-05-16T04:18:08.603Z,12.40
2023-05-16T04:20:36.707Z,9.98
2023-05-16T04:23:04.575Z,16.58
2023-05-16T04:25:32.788Z,17.05
2023-05-16T04:28:00.797Z,14.10
2023-05-16T04:30:30.961Z,12.55
2023-05-16T04:33:00.397Z,12.85
2023-05-16T04:35:29.464Z,9.10
2023-05-16T04:37:57.408Z,12.50
2023-05-16T04:40:25.597Z,11.73
2023-05-16T04:42:54.563Z,9.40
2023-05-16T04:45:22.530Z,8.48
2023-05-16T04:47:51.099Z,11.15
2023-05-16T04:50:20.346Z,14.75
2023-05-16T04:52:48.200Z,15.60
2023-05-16T04:55:16.464Z,9.35
2023-05-16T04:57:44.322Z,9.27
2023-05-16T05:00:16.343Z,8.35
2023-05-16T05:02:44.559Z,11.80
2023-05-16T05:05:12.729Z,9.10
2023-05-16T05:07:42.842Z,9.45
2023-05-16T05:10:11.851Z,8.57
2023-05-16T05:12:39.747Z,10.93
2023-05-16T05:15:08.744Z,16.25
2023-05-16T05:17:37.834Z,7.35
2023-05-16T05:20:08.700Z,6.78
2023-05-16T05:22:36.617Z,8.20
2023-05-16T05:25:07.320Z,9.63
2023-05-16T05:27:35.439Z,7.15
2023-05-16T05:30:03.690Z,14.00
2023-05-16T05:32:32.077Z,12.75
2023-05-16T05:35:00.129Z,6.22
2023-05-16T05:37:28.415Z,9.00
2023-05-16T05:39:56.597Z,10.30
2023-05-16T05:42:25.804Z,8.68
2023-05-16T05:44:53.740Z,9.48
2023-05-16T05:47:21.682Z,5.55
2023-05-16T05:49:49.699Z,5.57
2023-05-16T05:52:17.563Z,7.38
2023-05-16T05:54:45.544Z,9.27
2023-05-16T05:57:13.512Z,6.45
2023-05-16T05:59:42.774Z,8.18
2023-05-16T06:02:10.969Z,9.15
2023-05-16T06:04:38.892Z,9.38
2023-05-16T06:07:06.935Z,5.82
2023-05-16T06:09:34.816Z,5.57
2023-05-16T06:12:04.222Z,10.25
2023-05-16T06:14:34.640Z,9.30
2023-05-16T06:17:03.887Z,10.05
2023-05-16T06:19:31.835Z,8.50
2023-05-16T06:21:59.665Z,7.50
2023-05-16T06:24:29.792Z,8.95
2023-05-16T06:26:58.182Z,11.50
2023-05-16T06:29:26.165Z,6.85
2023-05-16T06:31:54.169Z,10.85
2023-05-16T06:34:27.630Z,5.80
2023-05-16T06:36:55.545Z,10.05
2023-05-16T06:39:23.574Z,6.97
2023-05-16T06:41:51.873Z,9.75
2023-05-16T06:44:20.736Z,10.63
2023-05-16T06:46:48.675Z,8.10
2023-05-16T06:49:16.780Z,5.47
2023-05-16T06:51:46.244Z,5.57
2023-05-16T06:54:14.234Z,6.75
2023-05-16T06:56:42.190Z,6.75
2023-05-16T06:59:10.209Z,8.95
2023-05-16T07:01:38.110Z,7.63
2023-05-16T07:04:06.611Z,6.15
2023-05-16T07:06:34.870Z,4.18
2023-05-16T07:09:04.705Z,5.70
2023-05-16T07:11:32.838Z,6.20
2023-05-16T07:14:00.730Z,5.65
2023-05-16T07:16:31.332Z,5.90
2023-05-16T07:18:59.707Z,8.75
2023-05-16T07:21:27.690Z,4.22
2023-05-16T07:23:55.618Z,9.80
2023-05-16T07:26:25.000Z,5.93
2023-05-16T07:28:53.068Z,5.78
2023-05-16T07:31:21.391Z,6.03
2023-05-16T07:33:49.366Z,6.88
2023-05-16T07:36:17.894Z,9.15
2023-05-16T07:38:46.577Z,6.85
2023-05-16T07:41:14.566Z,7.25
2023-05-16T07:43:44.052Z,6.68
2023-05-16T07:46:12.338Z,7.63
2023-05-16T07:48:40.383Z,8.32
2023-05-16T07:51:10.809Z,4.75
2023-05-16T07:53:38.853Z,5.07
2023-05-16T07:56:08.559Z,7.70
2023-05-16T07:58:36.764Z,6.00
2023-05-16T08:01:06.121Z,6.03
2023-05-16T08:03:34.380Z,7.75
2023-05-16T08:06:02.537Z,6.88
2023-05-16T08:08:38.854Z,4.57
2023-05-16T08:11:06.792Z,5.10
2023-05-16T08:13:34.849Z,7.32
2023-05-16T08:16:03.051Z,7.72
2023-05-16T08:18:32.664Z,6.88
2023-05-16T08:21:00.723Z,4.22
2023-05-16T08:23:28.740Z,5.00
2023-05-16T08:25:56.659Z,5.40
2023-05-16T08:28:24.676Z,5.32
2023-05-16T08:30:52.717Z,4.47
2023-05-16T08:33:20.765Z,4.40
2023-05-16T08:35:52.734Z,5.35
2023-05-16T08:38:20.930Z,4.70
2023-05-16T08:40:49.020Z,2.90
2023-05-16T08:43:18.304Z,9.73
2023-05-16T08:45:46.448Z,5.45
2023-05-16T08:48:16.051Z,4.95
2023-05-16T08:50:44.119Z,10.15
2023-05-16T08:53:15.737Z,4.75
2023-05-16T08:55:44.204Z,4.70
2023-05-16T08:58:12.361Z,6.85
2023-05-16T09:00:40.933Z,5.65
2023-05-16T09:03:09.386Z,5.50
2023-05-16T09:05:37.506Z,3.90
2023-05-16T09:08:06.613Z,4.68
2023-05-16T09:10:36.065Z,6.55
2023-05-16T09:13:04.402Z,3.58
2023-05-16T09:15:33.851Z,3.80
2023-05-16T09:18:02.448Z,3.70
2023-05-16T09:20:31.335Z,4.10
2023-05-16T09:23:00.993Z,3.78
2023-05-16T09:25:31.842Z,3.42
2023-05-16T09:28:03.517Z,3.10
2023-05-16T09:30:33.678Z,1.83
2023-05-16T09:33:01.976Z,6.00
2023-05-16T09:35:43.849Z,3.78
2023-05-16T09:38:16.170Z,5.43
2023-05-16T09:40:44.167Z,5.18
2023-05-16T09:43:16.928Z,3.33
2023-05-16T09:45:47.676Z,4.03
2023-05-16T09:48:17.046Z,1.77
2023-05-16T09:50:49.865Z,3.13
2023-05-16T09:53:18.227Z,3.55
2023-05-16T09:55:46.170Z,4.72
2023-05-16T09:58:18.373Z,3.97
2023-05-16T10:00:47.059Z,3.75
2023-05-16T10:03:16.161Z,5.15
2023-05-16T10:05:44.327Z,3.17
2023-05-16T10:08:15.533Z,3.67
2023-05-16T10:10:43.949Z,4.57
2023-05-16T10:13:12.989Z,4.10
2023-05-16T10:15:42.573Z,5.57
2023-05-16T10:18:13.514Z,4.07
2023-05-16T10:20:43.415Z,4.22
2023-05-16T10:23:14.701Z,2.42
2023-05-16T10:25:44.516Z,3.13
2023-05-16T10:28:12.826Z,3.25
2023-05-16T10:30:44.696Z,2.40
2023-05-16T10:33:13.962Z,2.72
2023-05-16T10:35:42.500Z,4.50
2023-05-16T10:38:12.465Z,3.50
2023-05-16T10:40:41.408Z,6.05
2023-05-16T10:43:10.040Z,4.93
2023-05-16T10:45:43.003Z,3.08
2023-05-16T10:48:15.412Z,2.97
2023-05-16T10:50:44.930Z,3.10
2023-05-16T10:53:17.468Z,3.60
2023-05-16T10:55:52.760Z,3.30
2023-05-16T10:58:25.365Z,3.45
2023-05-16T11:01:19.081Z,4.32
2023-05-16T11:04:11.522Z,6.63
2023-05-16T11:06:52.632Z,3.35
2023-05-16T11:09:28.438Z,4.78
2023-05-16T11:12:03.904Z,5.18
2023-05-16T11:14:42.299Z,7.00
2023-05-16T11:17:14.026Z,5.38
2023-05-16T11:19:44.239Z,3.70
2023-05-16T11:22:16.994Z,3.90
2023-05-16T11:24:53.569Z,4.82
2023-05-16T11:27:24.463Z,2.75
2023-05-16T11:29:52.830Z,6.40
2023-05-16T11:32:23.297Z,2.63
2023-05-16T11:34:51.905Z,7.32
2023-05-16T11:37:21.453Z,4.82
2023-05-16T11:39:49.842Z,3.33
2023-05-16T11:42:18.995Z,4.70
2023-05-16T11:44:46.984Z,2.35
2023-05-16T11:47:15.062Z,3.78
2023-05-16T11:49:44.430Z,2.97
2023-05-16T11:52:12.379Z,4.30
2023-05-16T11:54:43.284Z,6.03
2023-05-16T11:57:11.306Z,6.57
2023-05-16T11:59:39.734Z,3.50
2023-05-16T12:02:09.806Z,3.08
2023-05-16T12:04:38.739Z,4.07
2023-05-16T12:07:08.348Z,4.07
2023-05-16T12:09:36.411Z,3.42
2023-05-16T12:12:06.910Z,4.65
2023-05-16T12:14:34.970Z,4.65
2023-05-16T12:17:04.593Z,2.33
2023-05-16T12:19:32.939Z,4.07
2023-05-16T12:22:00.920Z,3.88
2023-05-16T12:24:33.285Z,2.85
2023-05-16T12:27:01.193Z,3.53
2023-05-16T12:29:29.184Z,3.88
2023-05-16T12:31:57.111Z,4.38
2023-05-16T12:34:25.303Z,5.85
2023-05-16T12:36:54.587Z,5.43
2023-05-16T12:39:23.021Z,3.83
2023-05-16T12:41:52.300Z,6.68
2023-05-16T12:44:23.153Z,3.65
2023-05-16T12:46:52.792Z,1.92
2023-05-16T12:49:22.742Z,1.98
2023-05-16T12:51:52.365Z,2.47
2023-05-16T12:54:22.845Z,1.75
2023-05-16T12:56:52.393Z,3.58
2023-05-16T12:59:20.640Z,3.63
2023-05-16T13:01:48.723Z,4.90
2023-05-16T13:04:19.981Z,3.50
2023-05-16T13:09:19.229Z,2.47
2023-05-16T13:11:47.153Z,2.90
2023-05-16T13:14:17.361Z,3.22
2023-05-16T13:16:45.655Z,2.92
2023-05-16T13:19:13.760Z,4.68
2023-05-16T13:21:41.777Z,2.47
2023-05-16T13:24:09.874Z,3.28
2023-05-16T13:26:37.871Z,3.58
2023-05-16T13:29:05.849Z,4.35
2023-05-16T13:31:35.289Z,2.70
2023-05-16T13:34:03.267Z,4.72
2023-05-16T13:36:41.852Z,4.25
2023-05-16T13:39:19.582Z,1.70
2023-05-16T13:41:49.261Z,3.65
2023-05-16T13:44:18.124Z,2.50
2023-05-16T13:46:47.426Z,2.80
2023-05-16T13:49:15.470Z,4.25
2023-05-16T13:51:43.451Z,3.90
2023-05-16T13:54:11.370Z,4.18
2023-05-16T13:56:39.410Z,4.70
2023-05-16T13:59:07.882Z,3.80
2023-05-16T14:01:37.150Z,3.50
2023-05-16T14:04:06.815Z,3.28
2023-05-16T14:06:35.007Z,7.75
2023-05-16T14:09:03.523Z,4.00
2023-05-16T14:11:31.571Z,2.60
2023-05-16T14:13:59.601Z,2.95
2023-05-16T14:16:27.777Z,5.10
2023-05-16T14:18:55.941Z,2.65
2023-05-16T14:21:25.450Z,3.10
2023-05-16T14:23:53.507Z,6.38
2023-05-16T14:26:25.219Z,2.70
2023-05-16T14:28:53.251Z,4.75
2023-05-16T14:31:21.365Z,3.75
2023-05-16T14:33:49.248Z,2.80
2023-05-16T14:36:17.203Z,3.55
2023-05-16T14:38:46.518Z,4.65
2023-05-16T14:41:14.456Z,5.05
2023-05-16T14:43:42.460Z,4.20
2023-05-16T14:46:11.059Z,4.05
2023-05-16T14:48:39.087Z,4.65
2023-05-16T14:51:07.561Z,3.58
2023-05-16T14:53:35.477Z,3.63
2023-05-16T14:56:05.117Z,4.10
2023-05-16T14:58:33.010Z,3.58
2023-05-16T15:01:00.894Z,3.55
2023-05-16T15:03:28.886Z,3.15
2023-05-16T15:05:57.066Z,2.25
2023-05-16T15:08:24.964Z,4.90
2023-05-16T15:10:52.862Z,3.50
2023-05-16T15:13:22.328Z,2.75
2023-05-16T15:15:50.692Z,3.53
2023-05-16T15:18:18.658Z,4.20
2023-05-16T15:20:46.614Z,4.50
2023-05-16T15:23:14.608Z,2.67
2023-05-16T15:25:42.572Z,3.78
2023-05-16T15:28:10.632Z,3.15
2023-05-16T15:30:39.916Z,1.92
2023-05-16T15:33:07.927Z,3.55
2023-05-16T15:35:35.951Z,3.90
2023-05-16T15:38:03.887Z,2.25
2023-05-16T15:40:31.774Z,3.95
2023-05-16T15:42:59.681Z,2.65
2023-05-16T15:45:27.810Z,3.72
2023-05-16T15:47:57.611Z,3.47
2023-05-16T15:50:25.664Z,4.32
2023-05-16T15:52:53.628Z,2.28
2023-05-16T15:55:22.114Z,6.55
2023-05-16T15:57:50.019Z,3.90
2023-05-16T16:00:18.609Z,3.75
2023-05-16T16:02:48.172Z,2.92
2023-05-16T16:05:17.760Z,3.33
2023-05-16T16:07:45.745Z,3.35
2023-05-16T16:10:13.748Z,3.55
2023-05-16T16:12:41.798Z,2.83
2023-05-16T16:15:11.888Z,2.05
2023-05-16T16:17:40.094Z,1.67
2023-05-16T16:20:08.911Z,2.85
2023-05-16T16:22:38.270Z,3.00
2023-05-16T16:25:07.298Z,2.00
2023-05-16T16:27:35.214Z,3.78
2023-05-16T16:30:03.251Z,4.70
2023-05-16T16:32:31.175Z,2.10
2023-05-16T16:34:59.138Z,3.10
2023-05-16T16:37:27.028Z,3.30
2023-05-16T16:39:56.446Z,5.10
2023-05-16T16:42:25.376Z,3.45
2023-05-16T16:44:53.609Z,2.88
2023-05-16T16:47:22.819Z,1.77
2023-05-16T16:49:51.069Z,2.63
2023-05-16T16:52:19.069Z,1.70
2023-05-16T16:54:46.954Z,3.22
2023-05-16T16:57:16.607Z,3.05
2023-05-16T16:59:46.556Z,2.53
2023-05-16T17:02:14.618Z,2.00
2023-05-16T17:04:42.668Z,2.47
2023-05-16T17:07:10.580Z,1.42
2023-05-16T17:09:42.363Z,1.42
2023-05-16T17:12:18.705Z,3.95
2023-05-16T17:14:48.806Z,5.70
2023-05-16T17:17:16.811Z,3.15
2023-05-16T17:19:47.072Z,4.93
2023-05-16T17:22:15.270Z,6.50
2023-05-16T17:24:43.329Z,5.75
2023-05-16T17:27:11.811Z,2.92
2023-05-16T17:29:39.706Z,2.97
2023-05-16T17:32:09.624Z,3.92
2023-05-16T17:34:37.607Z,3.42
2023-05-16T17:37:06.685Z,2.38
2023-05-16T17:39:34.910Z,3.78
2023-05-16T17:42:02.860Z,2.47
2023-05-16T17:44:30.798Z,1.95
2023-05-16T17:46:58.880Z,6.30
2023-05-16T17:49:31.136Z,1.90
2023-05-16T17:52:00.197Z,3.67
2023-05-16T17:54:30.992Z,2.78
2023-05-16T17:57:00.059Z,2.58
2023-05-16T17:59:28.377Z,1.55
2023-05-16T18:01:57.417Z,4.10
2023-05-16T18:04:31.489Z,2.28
2023-05-16T18:07:01.332Z,5.28
2023-05-16T18:09:29.332Z,4.55
2023-05-16T18:11:58.065Z,2.03
2023-05-16T18:14:25.994Z,4.20
2023-05-16T18:16:54.050Z,2.95
2023-05-16T18:19:22.050Z,2.58
2023-05-16T18:21:50.077Z,6.28
2023-05-16T18:24:19.324Z,3.63
2023-05-16T18:26:48.484Z,3.95
2023-05-16T18:29:16.521Z,2.28
2023-05-16T18:31:47.613Z,2.35
2023-05-16T18:34:15.513Z,2.88
2023-05-16T18:36:43.430Z,3.03
2023-05-16T18:39:12.751Z,2.55
2023-05-16T18:41:46.604Z,3.63
2023-05-16T18:44:16.989Z,3.75
2023-05-16T18:46:46.602Z,2.92
2023-05-16T18:49:14.729Z,3.55
2023-05-16T18:51:42.885Z,1.88
2023-05-16T18:54:13.080Z,4.20
2023-05-16T18:56:43.090Z,5.20
2023-05-16T18:59:11.137Z,4.30
2023-05-16T19:01:41.385Z,3.22
2023-05-16T19:04:09.377Z,4.25
2023-05-16T19:06:38.561Z,7.05
2023-05-16T19:09:07.481Z,4.43
2023-05-16T19:11:35.441Z,5.75
2023-05-16T19:14:04.614Z,5.47
2023-05-16T19:16:32.971Z,5.30
2023-05-16T19:19:06.895Z,9.55
2023-05-16T19:21:35.132Z,8.43
2023-05-16T19:24:03.659Z,6.47
2023-05-16T19:26:31.947Z,6.90
2023-05-16T19:29:03.001Z,8.95
2023-05-16T19:31:32.650Z,7.15
2023-05-16T19:34:00.696Z,7.55
2023-05-16T19:36:28.865Z,3.50
2023-05-16T19:38:56.817Z,8.45
2023-05-16T19:41:24.956Z,4.72
2023-05-16T19:43:53.219Z,9.50
2023-05-16T19:46:21.160Z,5.85
2023-05-16T19:48:50.904Z,5.95
2023-05-16T19:51:29.569Z,9.32
2023-05-16T19:54:05.693Z,7.30
2023-05-16T19:56:35.961Z,7.25
2023-05-16T19:59:03.865Z,5.05
2023-05-16T20:01:31.936Z,6.63
2023-05-16T20:04:01.654Z,7.03
2023-05-16T20:06:29.676Z,9.43
2023-05-16T20:08:57.629Z,6.78
2023-05-16T20:11:26.505Z,3.75
2023-05-16T20:13:55.662Z,5.63
2023-05-16T20:16:23.939Z,8.18
2023-05-16T20:18:51.924Z,10.80
2023-05-16T20:21:21.310Z,5.93
2023-05-16T20:23:49.262Z,7.00
2023-05-16T20:26:17.184Z,9.50
2023-05-16T20:28:45.153Z,7.85
2023-05-16T20:31:13.123Z,7.63
2023-05-16T20:33:41.117Z,8.90
2023-05-16T20:36:11.930Z,6.78
2023-05-16T20:38:41.188Z,5.32
2023-05-16T20:41:09.131Z,5.43
2023-05-16T20:43:37.141Z,4.80
2023-05-16T20:46:05.139Z,4.22
2023-05-16T20:48:33.496Z,8.70
2023-05-16T20:51:02.279Z,6.85
2023-05-16T20:53:30.161Z,6.25
2023-05-16T20:55:59.532Z,5.68
2023-05-16T20:58:27.606Z,9.88
2023-05-16T21:00:55.560Z,8.43
2023-05-16T21:03:23.496Z,7.95
2023-05-16T21:05:51.798Z,8.32
2023-05-16T21:08:19.771Z,10.55
2023-05-16T21:10:47.677Z,6.03
2023-05-16T21:13:16.950Z,10.45
2023-05-16T21:15:47.154Z,10.95
2023-05-16T21:18:17.361Z,7.43
2023-05-16T21:20:45.430Z,7.63
2023-05-16T21:23:13.433Z,8.00
2023-05-16T21:25:44.485Z,10.02
2023-05-16T21:28:12.438Z,10.65
2023-05-16T21:30:41.733Z,9.50
2023-05-16T21:33:09.765Z,9.98
2023-05-16T21:35:38.020Z,7.32
2023-05-16T21:38:06.080Z,6.80
2023-05-16T21:40:34.139Z,9.20
2023-05-16T21:43:02.286Z,9.07
2023-05-16T21:45:30.472Z,10.02
2023-05-16T21:48:00.159Z,9.52
2023-05-16T21:50:28.315Z,9.30
2023-05-16T21:52:56.242Z,9.02
2023-05-16T21:55:24.267Z,10.13
2023-05-16T21:57:52.191Z,10.98
2023-05-16T22:00:20.544Z,11.85
2023-05-16T22:02:49.193Z,7.70
2023-05-16T22:05:19.537Z,6.38
2023-05-16T22:07:48.098Z,6.10
2023-05-16T22:10:16.965Z,8.02
2023-05-16T22:12:45.028Z,8.48
2023-05-16T22:15:12.990Z,10.23
2023-05-16T22:17:41.823Z,10.65
2023-05-16T22:20:10.620Z,9.65
2023-05-16T22:22:39.863Z,7.88
2023-05-16T22:25:08.589Z,11.93
2023-05-16T22:27:36.736Z,10.85
2023-05-16T22:30:06.134Z,7.72
2023-05-16T22:32:34.159Z,15.18
2023-05-16T22:35:05.092Z,13.50
2023-05-16T22:37:32.984Z,9.80
2023-05-16T22:40:02.320Z,8.25
2023-05-16T22:42:31.283Z,12.93
2023-05-16T22:44:59.405Z,7.68
2023-05-16T22:47:28.864Z,13.05
2023-05-16T22:49:56.922Z,8.70
2023-05-16T22:52:24.869Z,9.23
2023-05-16T22:54:52.814Z,7.95
2023-05-16T22:57:22.108Z,11.77
2023-05-16T22:59:49.997Z,11.43
2023-05-16T23:02:17.971Z,12.43
2023-05-16T23:04:45.922Z,10.55
2023-05-16T23:07:13.850Z,9.75
2023-05-16T23:09:41.724Z,9.23
2023-05-16T23:12:09.955Z,8.57
2023-05-16T23:14:39.504Z,11.15
2023-05-16T23:17:07.335Z,11.30
2023-05-16T23:19:35.404Z,8.35
2023-05-16T23:22:03.480Z,10.95
2023-05-16T23:24:31.415Z,8.48
2023-05-16T23:26:59.306Z,13.38
2023-05-16T23:29:27.228Z,12.90
2023-05-16T23:31:56.611Z,12.82
2023-05-16T23:34:24.569Z,10.55
2023-05-16T23:36:52.493Z,8.73
2023-05-16T23:39:21.436Z,9.65
2023-05-16T23:41:49.332Z,10.27
2023-05-16T23:44:17.394Z,9.10
2023-05-16T23:46:45.352Z,9.40
2023-05-16T23:49:14.614Z,13.95
2023-05-16T23:51:56.072Z,7.80
2023-05-16T23:54:26.021Z,10.20
2023-05-16T23:56:53.977Z,6.88
2023-05-16T23:59:22.024Z,9.73
